sensor_id;sensor_type;location;lat;lon;timestamp;P1;durP1;ratioP1;P2;durP2;ratioP2
17177;SDS011;8704;52.006;4.374;2023-02-15T00:00:05;126.65;;;111.05;;
17177;SDS011;8704;52.006;4.374;2023-02-15T00:02:36;122.82;;;107.40;;
17177;SDS011;8704;52.006;4.374;2023-02-15T00:05:06;125.95;;;110.03;;
17177;SDS011;8704;52.006;4.374;2023-02-15T00:07:35;121.45;;;108.10;;
17177;SDS011;8704;52.006;4.374;2023-02-15T00:10:03;122.22;;;105.30;;
17177;SDS011;8704;52.006;4.374;2023-02-15T00:12:32;123.68;;;108.93;;
17177;SDS011;8704;52.006;4.374;2023-02-15T00:15:00;126.95;;;112.00;;
17177;SDS011;8704;52.006;4.374;2023-02-15T00:17:28;127.63;;;111.25;;
17177;SDS011;8704;52.006;4.374;2023-02-15T00:19:57;129.35;;;112.13;;
17177;SDS011;8704;52.006;4.374;2023-02-15T00:22:26;126.93;;;106.47;;
17177;SDS011;8704;52.006;4.374;2023-02-15T00:24:54;124.25;;;107.28;;
17177;SDS011;8704;52.006;4.374;2023-02-15T00:27:23;130.18;;;115.10;;
17177;SDS011;8704;52.006;4.374;2023-02-15T00:29:51;130.48;;;115.97;;
17177;SDS011;8704;52.006;4.374;2023-02-15T00:32:19;129.27;;;115.00;;
17177;SDS011;8704;52.006;4.374;2023-02-15T00:34:47;128.68;;;114.38;;
17177;SDS011;8704;52.006;4.374;2023-02-15T00:37:15;127.63;;;113.50;;
17177;SDS011;8704;52.006;4.374;2023-02-15T00:39:45;131.82;;;117.35;;
17177;SDS011;8704;52.006;4.374;2023-02-15T00:42:13;130.10;;;115.80;;
17177;SDS011;8704;52.006;4.374;2023-02-15T00:44:41;134.90;;;116.93;;
17177;SDS011;8704;52.006;4.374;2023-02-15T00:47:09;133.63;;;116.60;;
17177;SDS011;8704;52.006;4.374;2023-02-15T00:49:37;131.98;;;113.60;;
17177;SDS011;8704;52.006;4.374;2023-02-15T00:52:05;132.20;;;117.70;;
17177;SDS011;8704;52.006;4.374;2023-02-15T00:54:33;129.75;;;115.72;;
17177;SDS011;8704;52.006;4.374;2023-02-15T00:57:03;131.15;;;116.78;;
17177;SDS011;8704;52.006;4.374;2023-02-15T00:59:31;135.75;;;116.28;;
17177;SDS011;8704;52.006;4.374;2023-02-15T01:01:59;132.68;;;118.15;;
17177;SDS011;8704;52.006;4.374;2023-02-15T01:04:27;139.82;;;121.60;;
17177;SDS011;8704;52.006;4.374;2023-02-15T01:06:55;130.10;;;116.10;;
17177;SDS011;8704;52.006;4.374;2023-02-15T01:09:23;134.65;;;119.78;;
17177;SDS011;8704;52.006;4.374;2023-02-15T01:11:51;135.75;;;119.95;;
17177;SDS011;8704;52.006;4.374;2023-02-15T01:14:21;135.57;;;120.97;;
17177;SDS011;8704;52.006;4.374;2023-02-15T01:16:50;143.88;;;127.60;;
17177;SDS011;8704;52.006;4.374;2023-02-15T01:19:18;135.43;;;121.13;;
17177;SDS011;8704;52.006;4.374;2023-02-15T01:21:46;143.63;;;127.82;;
17177;SDS011;8704;52.006;4.374;2023-02-15T01:24:14;136.30;;;122.15;;
17177;SDS011;8704;52.006;4.374;2023-02-15T01:26:42;135.85;;;121.03;;
17177;SDS011;8704;52.006;4.374;2023-02-15T01:29:10;136.73;;;121.75;;
17177;SDS011;8704;52.006;4.374;2023-02-15T01:31:40;133.80;;;119.07;;
17177;SDS011;8704;52.006;4.374;2023-02-15T01:34:08;137.90;;;118.72;;
17177;SDS011;8704;52.006;4.374;2023-02-15T01:36:36;145.52;;;125.93;;
17177;SDS011;8704;52.006;4.374;2023-02-15T01:39:04;145.75;;;130.15;;
17177;SDS011;8704;52.006;4.374;2023-02-15T01:41:33;147.90;;;132.57;;
17177;SDS011;8704;52.006;4.374;2023-02-15T01:44:02;151.60;;;135.15;;
17177;SDS011;8704;52.006;4.374;2023-02-15T01:46:31;145.32;;;130.43;;
17177;SDS011;8704;52.006;4.374;2023-02-15T01:49:06;148.43;;;132.18;;
17177;SDS011;8704;52.006;4.374;2023-02-15T01:51:38;144.80;;;129.48;;
17177;SDS011;8704;52.006;4.374;2023-02-15T01:54:10;144.23;;;129.18;;
17177;SDS011;8704;52.006;4.374;2023-02-15T01:56:43;138.95;;;124.00;;
17177;SDS011;8704;52.006;4.374;2023-02-15T01:59:13;143.10;;;121.82;;
17177;SDS011;8704;52.006;4.374;2023-02-15T02:01:44;141.02;;;125.97;;
17177;SDS011;8704;52.006;4.374;2023-02-15T02:04:15;140.02;;;125.30;;
17177;SDS011;8704;52.006;4.374;2023-02-15T02:06:46;141.02;;;126.30;;
17177;SDS011;8704;52.006;4.374;2023-02-15T02:09:16;142.85;;;127.82;;
17177;SDS011;8704;52.006;4.374;2023-02-15T02:11:45;145.13;;;129.75;;
17177;SDS011;8704;52.006;4.374;2023-02-15T02:14:14;148.32;;;132.95;;
17177;SDS011;8704;52.006;4.374;2023-02-15T02:16:45;162.98;;;146.00;;
17177;SDS011;8704;52.006;4.374;2023-02-15T02:19:31;160.88;;;143.95;;
17177;SDS011;8704;52.006;4.374;2023-02-15T02:22:40;158.50;;;142.60;;
17177;SDS011;8704;52.006;4.374;2023-02-15T02:25:48;167.25;;;149.43;;
17177;SDS011;8704;52.006;4.374;2023-02-15T02:28:37;167.10;;;150.15;;
17177;SDS011;8704;52.006;4.374;2023-02-15T02:31:39;169.18;;;152.38;;
17177;SDS011;8704;52.006;4.374;2023-02-15T02:34:20;169.27;;;152.15;;
17177;SDS011;8704;52.006;4.374;2023-02-15T02:36:58;165.18;;;148.27;;
17177;SDS011;8704;52.006;4.374;2023-02-15T02:39:33;173.48;;;155.55;;
17177;SDS011;8704;52.006;4.374;2023-02-15T02:42:08;168.70;;;152.07;;
17177;SDS011;8704;52.006;4.374;2023-02-15T02:44:44;172.63;;;155.80;;
17177;SDS011;8704;52.006;4.374;2023-02-15T02:47:18;173.93;;;157.20;;
17177;SDS011;8704;52.006;4.374;2023-02-15T02:49:57;178.07;;;160.00;;
17177;SDS011;8704;52.006;4.374;2023-02-15T02:52:34;175.77;;;157.90;;
17177;SDS011;8704;52.006;4.374;2023-02-15T02:55:05;172.38;;;154.90;;
17177;SDS011;8704;52.006;4.374;2023-02-15T02:57:38;162.85;;;146.77;;
17177;SDS011;8704;52.006;4.374;2023-02-15T03:00:10;171.95;;;154.52;;
17177;SDS011;8704;52.006;4.374;2023-02-15T03:02:42;170.77;;;152.97;;
17177;SDS011;8704;52.006;4.374;2023-02-15T03:05:15;160.70;;;144.30;;
17177;SDS011;8704;52.006;4.374;2023-02-15T03:07:47;158.30;;;142.70;;
17177;SDS011;8704;52.006;4.374;2023-02-15T03:10:18;162.52;;;146.27;;
17177;SDS011;8704;52.006;4.374;2023-02-15T03:12:49;163.07;;;146.32;;
17177;SDS011;8704;52.006;4.374;2023-02-15T03:15:19;157.52;;;141.27;;
17177;SDS011;8704;52.006;4.374;2023-02-15T03:17:49;158.40;;;142.30;;
17177;SDS011;8704;52.006;4.374;2023-02-15T03:20:25;162.30;;;145.57;;
17177;SDS011;8704;52.006;4.374;2023-02-15T03:22:58;161.80;;;145.23;;
17177;SDS011;8704;52.006;4.374;2023-02-15T03:25:30;158.23;;;142.18;;
17177;SDS011;8704;52.006;4.374;2023-02-15T03:28:03;156.40;;;140.30;;
17177;SDS011;8704;52.006;4.374;2023-02-15T03:33:02;144.32;;;129.00;;
17177;SDS011;8704;52.006;4.374;2023-02-15T03:35:33;150.48;;;135.15;;
17177;SDS011;8704;52.006;4.374;2023-02-15T03:38:06;151.30;;;134.95;;
17177;SDS011;8704;52.006;4.374;2023-02-15T03:40:37;151.95;;;136.20;;
17177;SDS011;8704;52.006;4.374;2023-02-15T03:43:27;149.95;;;133.93;;
17177;SDS011;8704;52.006;4.374;2023-02-15T03:46:03;146.70;;;131.23;;
17177;SDS011;8704;52.006;4.374;2023-02-15T03:48:36;145.35;;;130.35;;
17177;SDS011;8704;52.006;4.374;2023-02-15T03:51:11;153.07;;;137.05;;
17177;SDS011;8704;52.006;4.374;2023-02-15T03:54:01;157.48;;;141.27;;
17177;SDS011;8704;52.006;4.374;2023-02-15T03:56:33;155.23;;;139.38;;
17177;SDS011;8704;52.006;4.374;2023-02-15T03:59:02;161.23;;;144.88;;
17177;SDS011;8704;52.006;4.374;2023-02-15T04:01:52;160.40;;;143.80;;
17177;SDS011;8704;52.006;4.374;2023-02-15T04:04:33;162.77;;;146.38;;
17177;SDS011;8704;52.006;4.374;2023-02-15T04:07:04;171.93;;;154.20;;
17177;SDS011;8704;52.006;4.374;2023-02-15T04:09:34;177.32;;;159.52;;
17177;SDS011;8704;52.006;4.374;2023-02-15T04:12:19;176.60;;;158.05;;
17177;SDS011;8704;52.006;4.374;2023-02-15T04:14:47;185.75;;;167.50;;
17177;SDS011;8704;52.006;4.374;2023-02-15T04:17:33;180.00;;;161.70;;
17177;SDS011;8704;52.006;4.374;2023-02-15T04:20:01;176.13;;;158.05;;
17177;SDS011;8704;52.006;4.374;2023-02-15T04:22:48;174.85;;;158.00;;
17177;SDS011;8704;52.006;4.374;2023-02-15T04:25:33;168.68;;;151.98;;
17177;SDS011;8704;52.006;4.374;2023-02-15T04:28:01;160.05;;;143.90;;
17177;SDS011;8704;52.006;4.374;2023-02-15T04:30:29;158.20;;;141.80;;
17177;SDS011;8704;52.006;4.374;2023-02-15T04:32:57;157.90;;;142.00;;
17177;SDS011;8704;52.006;4.374;2023-02-15T04:35:25;158.70;;;142.85;;
17177;SDS011;8704;52.006;4.374;2023-02-15T04:37:55;162.13;;;145.57;;
17177;SDS011;8704;52.006;4.374;2023-02-15T04:40:23;165.15;;;148.93;;
17177;SDS011;8704;52.006;4.374;2023-02-15T04:42:51;168.13;;;151.13;;
17177;SDS011;8704;52.006;4.374;2023-02-15T04:45:19;164.73;;;148.20;;
17177;SDS011;8704;52.006;4.374;2023-02-15T04:47:48;166.63;;;150.10;;
17177;SDS011;8704;52.006;4.374;2023-02-15T04:50:16;165.20;;;148.88;;
17177;SDS011;8704;52.006;4.374;2023-02-15T04:52:44;162.85;;;146.60;;
17177;SDS011;8704;52.006;4.374;2023-02-15T04:55:14;164.98;;;148.48;;
17177;SDS011;8704;52.006;4.374;2023-02-15T04:57:42;165.45;;;149.18;;
17177;SDS011;8704;52.006;4.374;2023-02-15T05:00:10;170.02;;;152.82;;
17177;SDS011;8704;52.006;4.374;2023-02-15T05:02:39;174.80;;;157.55;;
17177;SDS011;8704;52.006;4.374;2023-02-15T05:05:07;181.13;;;162.95;;
17177;SDS011;8704;52.006;4.374;2023-02-15T05:07:39;181.63;;;163.63;;
17177;SDS011;8704;52.006;4.374;2023-02-15T05:10:07;191.63;;;172.88;;
17177;SDS011;8704;52.006;4.374;2023-02-15T05:12:37;195.10;;;177.30;;
17177;SDS011;8704;52.006;4.374;2023-02-15T05:15:06;199.57;;;180.32;;
17177;SDS011;8704;52.006;4.374;2023-02-15T05:17:34;191.23;;;172.32;;
17177;SDS011;8704;52.006;4.374;2023-02-15T05:20:02;187.68;;;169.75;;
17177;SDS011;8704;52.006;4.374;2023-02-15T05:22:31;183.27;;;166.57;;
17177;SDS011;8704;52.006;4.374;2023-02-15T05:24:59;185.23;;;167.55;;
17177;SDS011;8704;52.006;4.374;2023-02-15T05:27:46;175.32;;;158.65;;
17177;SDS011;8704;52.006;4.374;2023-02-15T05:30:32;184.88;;;167.00;;
17177;SDS011;8704;52.006;4.374;2023-02-15T05:33:00;184.48;;;166.30;;
17177;SDS011;8704;52.006;4.374;2023-02-15T05:35:28;183.07;;;165.00;;
17177;SDS011;8704;52.006;4.374;2023-02-15T05:37:56;175.73;;;159.13;;
17177;SDS011;8704;52.006;4.374;2023-02-15T05:40:24;177.25;;;159.63;;
17177;SDS011;8704;52.006;4.374;2023-02-15T05:42:53;187.02;;;168.35;;
17177;SDS011;8704;52.006;4.374;2023-02-15T05:45:23;182.50;;;164.63;;
17177;SDS011;8704;52.006;4.374;2023-02-15T05:47:51;177.35;;;160.82;;
17177;SDS011;8704;52.006;4.374;2023-02-15T05:50:19;172.88;;;155.88;;
17177;SDS011;8704;52.006;4.374;2023-02-15T05:52:47;175.50;;;157.90;;
17177;SDS011;8704;52.006;4.374;2023-02-15T05:55:17;174.48;;;158.07;;
17177;SDS011;8704;52.006;4.374;2023-02-15T05:57:46;181.90;;;163.80;;
17177;SDS011;8704;52.006;4.374;2023-02-15T06:00:16;187.93;;;169.75;;
17177;SDS011;8704;52.006;4.374;2023-02-15T06:02:44;190.80;;;172.75;;
17177;SDS011;8704;52.006;4.374;2023-02-15T06:05:12;199.77;;;180.85;;
17177;SDS011;8704;52.006;4.374;2023-02-15T06:07:42;190.85;;;172.25;;
17177;SDS011;8704;52.006;4.374;2023-02-15T06:10:10;189.50;;;171.55;;
17177;SDS011;8704;52.006;4.374;2023-02-15T06:12:38;196.80;;;177.65;;
17177;SDS011;8704;52.006;4.374;2023-02-15T06:15:07;191.27;;;172.63;;
17177;SDS011;8704;52.006;4.374;2023-02-15T06:17:37;184.65;;;166.68;;
17177;SDS011;8704;52.006;4.374;2023-02-15T06:20:05;178.77;;;162.00;;
17177;SDS011;8704;52.006;4.374;2023-02-15T06:22:34;184.30;;;166.15;;
17177;SDS011;8704;52.006;4.374;2023-02-15T06:25:02;186.48;;;167.73;;
17177;SDS011;8704;52.006;4.374;2023-02-15T06:27:30;193.18;;;174.35;;
17177;SDS011;8704;52.006;4.374;2023-02-15T06:29:58;200.02;;;180.88;;
17177;SDS011;8704;52.006;4.374;2023-02-15T06:32:27;201.45;;;181.57;;
17177;SDS011;8704;52.006;4.374;2023-02-15T06:34:56;205.25;;;185.30;;
17177;SDS011;8704;52.006;4.374;2023-02-15T06:37:24;197.48;;;178.73;;
17177;SDS011;8704;52.006;4.374;2023-02-15T06:39:52;211.07;;;190.32;;
17177;SDS011;8704;52.006;4.374;2023-02-15T06:42:20;204.63;;;185.25;;
17177;SDS011;8704;52.006;4.374;2023-02-15T06:44:48;193.73;;;176.30;;
17177;SDS011;8704;52.006;4.374;2023-02-15T06:47:16;190.98;;;173.40;;
17177;SDS011;8704;52.006;4.374;2023-02-15T06:49:44;192.50;;;174.25;;
17177;SDS011;8704;52.006;4.374;2023-02-15T06:52:14;194.15;;;175.90;;
17177;SDS011;8704;52.006;4.374;2023-02-15T06:54:42;191.85;;;174.10;;
17177;SDS011;8704;52.006;4.374;2023-02-15T06:57:10;192.00;;;173.23;;
17177;SDS011;8704;52.006;4.374;2023-02-15T06:59:38;189.25;;;171.73;;
17177;SDS011;8704;52.006;4.374;2023-02-15T07:02:06;187.30;;;169.50;;
17177;SDS011;8704;52.006;4.374;2023-02-15T07:04:35;185.38;;;167.93;;
17177;SDS011;8704;52.006;4.374;2023-02-15T07:07:03;186.77;;;168.88;;
17177;SDS011;8704;52.006;4.374;2023-02-15T07:09:36;183.27;;;165.90;;
17177;SDS011;8704;52.006;4.374;2023-02-15T07:12:04;188.27;;;170.18;;
17177;SDS011;8704;52.006;4.374;2023-02-15T07:14:50;185.88;;;168.25;;
17177;SDS011;8704;52.006;4.374;2023-02-15T07:17:18;185.07;;;167.15;;
17177;SDS011;8704;52.006;4.374;2023-02-15T07:20:00;188.25;;;170.43;;
17177;SDS011;8704;52.006;4.374;2023-02-15T07:22:29;188.13;;;170.35;;
17177;SDS011;8704;52.006;4.374;2023-02-15T07:24:58;197.95;;;178.60;;
17177;SDS011;8704;52.006;4.374;2023-02-15T07:27:26;194.27;;;175.75;;
17177;SDS011;8704;52.006;4.374;2023-02-15T07:29:54;206.30;;;186.48;;
17177;SDS011;8704;52.006;4.374;2023-02-15T07:32:22;210.27;;;190.48;;
17177;SDS011;8704;52.006;4.374;2023-02-15T07:34:51;213.68;;;192.80;;
17177;SDS011;8704;52.006;4.374;2023-02-15T07:37:19;209.02;;;189.82;;
17177;SDS011;8704;52.006;4.374;2023-02-15T07:39:47;215.85;;;196.48;;
17177;SDS011;8704;52.006;4.374;2023-02-15T07:42:16;218.25;;;197.25;;
17177;SDS011;8704;52.006;4.374;2023-02-15T07:44:46;225.70;;;204.65;;
17177;SDS011;8704;52.006;4.374;2023-02-15T07:47:14;227.18;;;205.05;;
17177;SDS011;8704;52.006;4.374;2023-02-15T07:49:42;238.98;;;216.68;;
17177;SDS011;8704;52.006;4.374;2023-02-15T07:52:10;248.27;;;224.73;;
17177;SDS011;8704;52.006;4.374;2023-02-15T07:54:38;253.43;;;228.82;;
17177;SDS011;8704;52.006;4.374;2023-02-15T07:57:06;254.25;;;230.02;;
17177;SDS011;8704;52.006;4.374;2023-02-15T07:59:35;264.92;;;240.48;;
17177;SDS011;8704;52.006;4.374;2023-02-15T08:02:05;273.70;;;248.65;;
17177;SDS011;8704;52.006;4.374;2023-02-15T08:04:35;289.85;;;261.98;;
17177;SDS011;8704;52.006;4.374;2023-02-15T08:07:03;287.25;;;260.33;;
17177;SDS011;8704;52.006;4.374;2023-02-15T08:09:31;293.52;;;265.30;;
17177;SDS011;8704;52.006;4.374;2023-02-15T08:11:59;300.95;;;272.98;;
17177;SDS011;8704;52.006;4.374;2023-02-15T08:14:28;307.48;;;278.52;;
17177;SDS011;8704;52.006;4.374;2023-02-15T08:16:58;321.15;;;291.30;;
17177;SDS011;8704;52.006;4.374;2023-02-15T08:21:58;321.13;;;291.83;;
17177;SDS011;8704;52.006;4.374;2023-02-15T08:24:28;331.05;;;300.15;;
17177;SDS011;8704;52.006;4.374;2023-02-15T08:26:58;338.23;;;306.83;;
17177;SDS011;8704;52.006;4.374;2023-02-15T08:29:31;344.02;;;310.58;;
17177;SDS011;8704;52.006;4.374;2023-02-15T08:32:02;346.42;;;313.13;;
17177;SDS011;8704;52.006;4.374;2023-02-15T08:34:33;347.77;;;314.83;;
17177;SDS011;8704;52.006;4.374;2023-02-15T08:37:03;340.33;;;308.00;;
17177;SDS011;8704;52.006;4.374;2023-02-15T08:39:32;358.35;;;323.13;;
17177;SDS011;8704;52.006;4.374;2023-02-15T08:42:00;350.13;;;317.10;;
17177;SDS011;8704;52.006;4.374;2023-02-15T08:44:28;355.92;;;320.48;;
17177;SDS011;8704;52.006;4.374;2023-02-15T08:46:56;350.00;;;315.75;;
17177;SDS011;8704;52.006;4.374;2023-02-15T08:49:30;357.70;;;323.17;;
17177;SDS011;8704;52.006;4.374;2023-02-15T08:51:58;362.20;;;327.27;;
17177;SDS011;8704;52.006;4.374;2023-02-15T08:54:26;354.95;;;321.15;;
17177;SDS011;8704;52.006;4.374;2023-02-15T08:56:55;353.23;;;318.48;;
17177;SDS011;8704;52.006;4.374;2023-02-15T08:59:23;369.25;;;333.35;;
17177;SDS011;8704;52.006;4.374;2023-02-15T09:01:53;364.73;;;329.38;;
17177;SDS011;8704;52.006;4.374;2023-02-15T09:04:21;373.50;;;336.27;;
17177;SDS011;8704;52.006;4.374;2023-02-15T09:06:51;375.13;;;338.08;;
17177;SDS011;8704;52.006;4.374;2023-02-15T09:09:19;371.95;;;335.80;;
17177;SDS011;8704;52.006;4.374;2023-02-15T09:11:48;384.30;;;347.10;;
17177;SDS011;8704;52.006;4.374;2023-02-15T09:14:24;376.92;;;341.05;;
17177;SDS011;8704;52.006;4.374;2023-02-15T09:16:53;380.23;;;343.23;;
17177;SDS011;8704;52.006;4.374;2023-02-15T09:19:21;369.25;;;332.52;;
17177;SDS011;8704;52.006;4.374;2023-02-15T09:21:52;379.10;;;340.80;;
17177;SDS011;8704;52.006;4.374;2023-02-15T09:24:20;372.73;;;335.90;;
17177;SDS011;8704;52.006;4.374;2023-02-15T09:26:49;373.92;;;337.63;;
17177;SDS011;8704;52.006;4.374;2023-02-15T09:29:18;371.58;;;335.52;;
17177;SDS011;8704;52.006;4.374;2023-02-15T09:31:47;387.27;;;349.35;;
17177;SDS011;8704;52.006;4.374;2023-02-15T09:34:17;379.17;;;341.70;;
17177;SDS011;8704;52.006;4.374;2023-02-15T09:36:47;378.20;;;341.70;;
17177;SDS011;8704;52.006;4.374;2023-02-15T09:39:17;357.70;;;321.90;;
17177;SDS011;8704;52.006;4.374;2023-02-15T09:45:03;363.98;;;328.20;;
17177;SDS011;8704;52.006;4.374;2023-02-15T09:47:48;338.20;;;304.35;;
17177;SDS011;8704;52.006;4.374;2023-02-15T09:50:37;320.25;;;288.40;;
17177;SDS011;8704;52.006;4.374;2023-02-15T09:53:17;287.85;;;258.52;;
17177;SDS011;8704;52.006;4.374;2023-02-15T09:56:02;298.38;;;268.40;;
17177;SDS011;8704;52.006;4.374;2023-02-15T09:58:40;287.05;;;259.42;;
17177;SDS011;8704;52.006;4.374;2023-02-15T10:01:18;263.90;;;238.63;;
17177;SDS011;8704;52.006;4.374;2023-02-15T10:04:03;245.15;;;220.75;;
17177;SDS011;8704;52.006;4.374;2023-02-15T10:06:41;245.43;;;221.27;;
17177;SDS011;8704;52.006;4.374;2023-02-15T10:09:30;232.35;;;210.10;;
17177;SDS011;8704;52.006;4.374;2023-02-15T10:12:27;228.15;;;204.80;;
17177;SDS011;8704;52.006;4.374;2023-02-15T10:15:11;184.95;;;165.30;;
17177;SDS011;8704;52.006;4.374;2023-02-15T10:18:03;160.77;;;143.48;;
17177;SDS011;8704;52.006;4.374;2023-02-15T10:20:45;152.23;;;123.93;;
17177;SDS011;8704;52.006;4.374;2023-02-15T10:23:26;132.30;;;113.45;;
17177;SDS011;8704;52.006;4.374;2023-02-15T10:26:07;107.40;;;79.78;;
17177;SDS011;8704;52.006;4.374;2023-02-15T10:28:45;97.93;;;73.30;;
17177;SDS011;8704;52.006;4.374;2023-02-15T10:31:20;100.78;;;76.05;;
17177;SDS011;8704;52.006;4.374;2023-02-15T10:33:55;102.07;;;75.10;;
17177;SDS011;8704;52.006;4.374;2023-02-15T10:36:44;95.75;;;77.35;;
17177;SDS011;8704;52.006;4.374;2023-02-15T10:39:34;90.15;;;64.55;;
17177;SDS011;8704;52.006;4.374;2023-02-15T10:42:11;87.57;;;60.95;;
17177;SDS011;8704;52.006;4.374;2023-02-15T10:44:50;88.57;;;62.28;;
17177;SDS011;8704;52.006;4.374;2023-02-15T10:47:34;89.07;;;66.13;;
17177;SDS011;8704;52.006;4.374;2023-02-15T10:50:17;80.93;;;58.30;;
17177;SDS011;8704;52.006;4.374;2023-02-15T10:52:59;84.13;;;61.70;;
17177;SDS011;8704;52.006;4.374;2023-02-15T10:55:41;83.43;;;62.95;;
17177;SDS011;8704;52.006;4.374;2023-02-15T10:58:21;80.85;;;56.28;;
17177;SDS011;8704;52.006;4.374;2023-02-15T11:01:02;79.85;;;54.35;;
17177;SDS011;8704;52.006;4.374;2023-02-15T11:03:46;78.05;;;57.15;;
17177;SDS011;8704;52.006;4.374;2023-02-15T11:06:24;81.00;;;56.65;;
17177;SDS011;8704;52.006;4.374;2023-02-15T11:08:55;71.78;;;52.95;;
17177;SDS011;8704;52.006;4.374;2023-02-15T11:11:27;71.65;;;49.60;;
17177;SDS011;8704;52.006;4.374;2023-02-15T11:14:00;64.53;;;45.45;;
17177;SDS011;8704;52.006;4.374;2023-02-15T11:16:36;65.55;;;45.58;;
17177;SDS011;8704;52.006;4.374;2023-02-15T11:19:06;70.80;;;48.28;;
17177;SDS011;8704;52.006;4.374;2023-02-15T11:21:39;75.45;;;49.92;;
17177;SDS011;8704;52.006;4.374;2023-02-15T11:24:10;71.15;;;47.50;;
17177;SDS011;8704;52.006;4.374;2023-02-15T11:26:41;65.43;;;44.97;;
17177;SDS011;8704;52.006;4.374;2023-02-15T11:29:13;72.65;;;46.30;;
17177;SDS011;8704;52.006;4.374;2023-02-15T11:31:51;67.78;;;46.92;;
17177;SDS011;8704;52.006;4.374;2023-02-15T11:34:23;74.40;;;47.70;;
17177;SDS011;8704;52.006;4.374;2023-02-15T11:36:55;70.50;;;49.60;;
17177;SDS011;8704;52.006;4.374;2023-02-15T11:39:26;68.70;;;46.67;;
17177;SDS011;8704;52.006;4.374;2023-02-15T11:41:59;66.38;;;44.78;;
17177;SDS011;8704;52.006;4.374;2023-02-15T11:44:32;61.20;;;43.10;;
17177;SDS011;8704;52.006;4.374;2023-02-15T11:47:08;62.30;;;43.55;;
17177;SDS011;8704;52.006;4.374;2023-02-15T11:49:37;67.18;;;45.67;;
17177;SDS011;8704;52.006;4.374;2023-02-15T11:52:07;60.00;;;43.55;;
17177;SDS011;8704;52.006;4.374;2023-02-15T11:54:39;63.75;;;42.10;;
17177;SDS011;8704;52.006;4.374;2023-02-15T11:57:11;61.13;;;44.15;;
17177;SDS011;8704;52.006;4.374;2023-02-15T11:59:49;64.68;;;44.22;;
17177;SDS011;8704;52.006;4.374;2023-02-15T12:02:22;59.97;;;42.95;;
17177;SDS011;8704;52.006;4.374;2023-02-15T12:04:54;63.25;;;41.90;;
17177;SDS011;8704;52.006;4.374;2023-02-15T12:07:26;61.30;;;43.42;;
17177;SDS011;8704;52.006;4.374;2023-02-15T12:10:00;59.58;;;42.05;;
17177;SDS011;8704;52.006;4.374;2023-02-15T12:12:34;56.72;;;40.97;;
17177;SDS011;8704;52.006;4.374;2023-02-15T12:15:03;61.65;;;41.13;;
17177;SDS011;8704;52.006;4.374;2023-02-15T12:17:36;56.20;;;40.38;;
17177;SDS011;8704;52.006;4.374;2023-02-15T12:20:20;56.33;;;38.60;;
17177;SDS011;8704;52.006;4.374;2023-02-15T12:22:51;64.47;;;41.10;;
17177;SDS011;8704;52.006;4.374;2023-02-15T12:25:22;60.85;;;41.55;;
17177;SDS011;8704;52.006;4.374;2023-02-15T12:27:53;59.25;;;41.08;;
17177;SDS011;8704;52.006;4.374;2023-02-15T12:30:22;62.83;;;42.83;;
17177;SDS011;8704;52.006;4.374;2023-02-15T12:32:56;56.15;;;41.53;;
17177;SDS011;8704;52.006;4.374;2023-02-15T12:35:27;56.42;;;41.85;;
17177;SDS011;8704;52.006;4.374;2023-02-15T12:37:59;57.85;;;42.38;;
17177;SDS011;8704;52.006;4.374;2023-02-15T12:40:31;67.82;;;44.75;;
17177;SDS011;8704;52.006;4.374;2023-02-15T12:43:01;63.83;;;40.88;;
17177;SDS011;8704;52.006;4.374;2023-02-15T12:45:35;59.33;;;42.53;;
17177;SDS011;8704;52.006;4.374;2023-02-15T12:48:15;61.25;;;41.28;;
17177;SDS011;8704;52.006;4.374;2023-02-15T12:50:45;53.15;;;38.67;;
17177;SDS011;8704;52.006;4.374;2023-02-15T12:53:32;54.80;;;40.15;;
17177;SDS011;8704;52.006;4.374;2023-02-15T12:56:01;55.92;;;39.40;;
17177;SDS011;8704;52.006;4.374;2023-02-15T12:58:31;58.72;;;39.38;;
17177;SDS011;8704;52.006;4.374;2023-02-15T13:01:04;53.83;;;38.67;;
17177;SDS011;8704;52.006;4.374;2023-02-15T13:03:53;59.33;;;41.85;;
17177;SDS011;8704;52.006;4.374;2023-02-15T13:06:26;61.15;;;40.55;;
17177;SDS011;8704;52.006;4.374;2023-02-15T13:08:55;58.58;;;39.78;;
17177;SDS011;8704;52.006;4.374;2023-02-15T13:11:32;61.15;;;39.50;;
17177;SDS011;8704;52.006;4.374;2023-02-15T13:14:01;56.70;;;39.28;;
17177;SDS011;8704;52.006;4.374;2023-02-15T13:16:31;61.65;;;40.08;;
17177;SDS011;8704;52.006;4.374;2023-02-15T13:19:04;58.95;;;40.65;;
17177;SDS011;8704;52.006;4.374;2023-02-15T13:21:38;53.95;;;39.17;;
17177;SDS011;8704;52.006;4.374;2023-02-15T13:24:13;57.55;;;40.10;;
17177;SDS011;8704;52.006;4.374;2023-02-15T13:26:46;60.88;;;40.22;;
17177;SDS011;8704;52.006;4.374;2023-02-15T13:29:16;56.30;;;39.65;;
17177;SDS011;8704;52.006;4.374;2023-02-15T13:31:47;55.30;;;39.50;;
17177;SDS011;8704;52.006;4.374;2023-02-15T13:34:19;57.75;;;39.33;;
17177;SDS011;8704;52.006;4.374;2023-02-15T13:36:51;55.38;;;40.03;;
17177;SDS011;8704;52.006;4.374;2023-02-15T13:39:26;56.47;;;39.58;;
17177;SDS011;8704;52.006;4.374;2023-02-15T13:42:02;52.05;;;38.42;;
17177;SDS011;8704;52.006;4.374;2023-02-15T13:47:41;51.20;;;38.53;;
17177;SDS011;8704;52.006;4.374;2023-02-15T13:50:23;56.15;;;38.47;;
17177;SDS011;8704;52.006;4.374;2023-02-15T13:53:12;55.22;;;38.47;;
17177;SDS011;8704;52.006;4.374;2023-02-15T13:55:53;57.03;;;38.33;;
17177;SDS011;8704;52.006;4.374;2023-02-15T13:58:32;53.55;;;38.08;;
17177;SDS011;8704;52.006;4.374;2023-02-15T14:01:22;51.72;;;35.78;;
17177;SDS011;8704;52.006;4.374;2023-02-15T14:04:06;55.50;;;38.10;;
17177;SDS011;8704;52.006;4.374;2023-02-15T14:07:09;58.00;;;37.25;;
17177;SDS011;8704;52.006;4.374;2023-02-15T14:10:02;54.13;;;35.83;;
17177;SDS011;8704;52.006;4.374;2023-02-15T14:12:49;52.90;;;36.63;;
17177;SDS011;8704;52.006;4.374;2023-02-15T14:15:32;52.72;;;36.53;;
17177;SDS011;8704;52.006;4.374;2023-02-15T14:18:10;52.35;;;38.10;;
17177;SDS011;8704;52.006;4.374;2023-02-15T14:20:50;50.03;;;36.67;;
17177;SDS011;8704;52.006;4.374;2023-02-15T14:23:33;54.15;;;36.70;;
17177;SDS011;8704;52.006;4.374;2023-02-15T14:26:09;53.25;;;36.67;;
17177;SDS011;8704;52.006;4.374;2023-02-15T14:28:46;49.30;;;36.55;;
17177;SDS011;8704;52.006;4.374;2023-02-15T14:31:22;50.22;;;36.13;;
17177;SDS011;8704;52.006;4.374;2023-02-15T14:33:57;48.63;;;36.05;;
17177;SDS011;8704;52.006;4.374;2023-02-15T14:36:25;52.28;;;37.42;;
17177;SDS011;8704;52.006;4.374;2023-02-15T14:39:02;50.57;;;36.97;;
17177;SDS011;8704;52.006;4.374;2023-02-15T14:42:01;52.10;;;37.42;;
17177;SDS011;8704;52.006;4.374;2023-02-15T14:44:37;51.65;;;37.97;;
17177;SDS011;8704;52.006;4.374;2023-02-15T14:47:09;51.00;;;37.30;;
17177;SDS011;8704;52.006;4.374;2023-02-15T14:49:40;49.85;;;38.33;;
17177;SDS011;8704;52.006;4.374;2023-02-15T14:52:09;50.95;;;37.55;;
17177;SDS011;8704;52.006;4.374;2023-02-15T14:54:58;53.47;;;38.13;;
17177;SDS011;8704;52.006;4.374;2023-02-15T14:57:27;51.88;;;37.10;;
17177;SDS011;8704;52.006;4.374;2023-02-15T15:00:03;52.85;;;36.95;;